Terminal Aerodrome Forecast
Issued by NWS

Home | Current Version | Previous Version | Graphics & Text | Print | Product List | Glossary On
Versions: 1 2 3 4 5 6 7 8 9 10 11 12 13 14 15 16 17 18 19 20 21 22 23 24 25 26 27 28 29 30 31 32 33
000
FTUS43 KLOT 291607 AAC
TAFDPA
TAF AMD
KDPA 291607Z 2916/3012 19020G35KT 6SM -RA SCT035 OVC070
      TEMPO 2916/2917 3SM -RA BKN035 OVC070
     FM291730 20023G35KT P6SM SCT030 BKN050 OVC070
      TEMPO 2923/3001 5SM -SHRA
     FM300100 27012G23KT P6SM BKN035
     FM300300 29010KT P6SM FEW040=

USA.gov is the U.S. government's official web portal to all federal, state and local government web resources and services.